Time;durP1;ratioP1;P1;durP2;ratioP2;P2;SDS_P1;SDS_P2;PMS_P1;PMS_P2;Temp;Humidity;BMP_temperature;BMP_pressure;BME280_temperature;BME280_humidity;BME280_pressure;Samples;Min_cycle;Max_cycle;Signal;HPM_P1;HPM_P2
2024/03/06 00:01:46;;;;;;;2.80;2.13;;;;;;;21.00;nan;100059.84;7393935;19;20086;-83
2024/03/06 00:04:12;;;;;;;0.55;0.55;;;;;;;20.95;nan;100069.19;7393577;19;20023;-82
2024/03/06 00:06:38;;;;;;;6.22;1.58;;;;;;;20.92;nan;100065.38;7394048;19;20479;-82
2024/03/06 00:09:04;;;;;;;6.72;2.88;;;;;;;20.90;nan;100067.97;7392166;19;20014;-83
2024/03/06 00:11:30;;;;;;;6.10;2.00;;;;;;;20.93;nan;100055.56;7391341;19;20019;-83
2024/03/06 00:13:57;;;;;;;3.47;2.60;;;;;;;20.95;nan;100052.97;7393994;19;20375;-86
2024/03/06 00:16:23;;;;;;;2.72;2.03;;;;;;;21.44;nan;100064.66;7390159;19;20018;-87
2024/03/06 00:18:49;;;;;;;6.05;2.80;;;;;;;20.98;nan;100063.22;7389929;19;20010;-84
2024/03/06 00:21:15;;;;;;;8.82;3.00;;;;;;;20.90;nan;100062.31;7396346;19;20027;-82
2024/03/06 00:23:41;;;;;;;2.42;2.03;;;;;;;20.93;nan;100071.78;7393573;19;20035;-84
2024/03/06 00:26:07;;;;;;;8.50;2.80;;;;;;;21.36;nan;100068.69;7390382;19;20038;-85
2024/03/06 00:28:33;;;;;;;6.97;2.55;;;;;;;22.50;nan;100080.13;7392277;19;20502;-83
2024/03/06 00:30:59;;;;;;;18.88;2.05;;;;;;;20.98;nan;100074.53;7391861;19;20022;-84
2024/03/06 00:33:25;;;;;;;3.55;2.15;;;;;;;20.65;nan;100080.00;7393968;19;20021;-84
2024/03/06 00:35:52;;;;;;;11.02;3.65;;;;;;;20.59;nan;100085.78;7391688;19;20018;-90
2024/03/06 00:38:18;;;;;;;6.03;1.40;;;;;;;20.57;nan;100079.13;7392193;19;20372;-85
2024/03/06 00:40:44;;;;;;;6.13;2.47;;;;;;;20.46;nan;100079.28;7391875;19;20033;-86
2024/03/06 00:43:10;;;;;;;2.03;1.45;;;;;;;20.46;nan;100080.06;7393089;19;20030;-82
2024/03/06 00:45:36;;;;;;;2.72;0.68;;;;;;;20.49;nan;100081.81;7391975;19;20031;-83
2024/03/06 00:48:03;;;;;;;10.65;3.08;;;;;;;20.64;nan;100089.81;7393030;19;20043;-87
2024/03/06 00:50:29;;;;;;;1.65;1.15;;;;;;;21.27;nan;100083.31;7397712;19;20043;-86
2024/03/06 00:52:55;;;;;;;5.68;3.63;;;;;;;21.42;nan;100089.19;7395953;19;20025;-84
2024/03/06 00:55:21;;;;;;;6.15;1.60;;;;;;;21.45;nan;100085.25;7396090;19;20019;-88
2024/03/06 00:57:47;;;;;;;6.75;1.08;;;;;;;21.42;nan;100084.28;7390938;19;20018;-85
2024/03/06 01:00:15;;;;;;;1.75;1.30;;;;;;;21.48;nan;100087.00;7393190;19;20022;-84
2024/03/06 01:02:45;;;;;;;3.22;1.15;;;;;;;21.62;nan;100091.34;7390864;19;20022;-85
2024/03/06 01:05:11;;;;;;;10.35;2.03;;;;;;;21.78;nan;100087.41;7394870;19;20015;-85
2024/03/06 01:07:39;;;;;;;5.60;2.60;;;;;;;21.79;nan;100086.09;7391722;19;20022;-82
2024/03/06 01:10:09;;;;;;;0.65;0.65;;;;;;;21.76;nan;100090.03;7394989;19;20442;-86
2024/03/06 01:12:35;;;;;;;2.72;1.98;;;;;;;21.96;nan;100078.00;7398268;19;20031;-86
2024/03/06 01:15:03;;;;;;;6.30;3.30;;;;;;;21.25;nan;100080.22;7394992;19;20011;-86
2024/03/06 01:17:29;;;;;;;16.75;2.53;;;;;;;21.19;nan;100082.41;7395994;19;20018;-86
2024/03/06 01:19:55;;;;;;;6.28;2.50;;;;;;;20.98;nan;100088.69;7394645;19;20085;-86
2024/03/06 01:22:21;;;;;;;3.78;2.22;;;;;;;20.92;nan;100093.69;7395403;19;20041;-93
2024/03/06 01:24:50;;;;;;;1.88;1.00;;;;;;;20.87;nan;100091.72;7393098;19;20014;-92
2024/03/06 01:27:16;;;;;;;7.85;2.40;;;;;;;20.90;nan;100090.63;7391822;19;20022;-91
2024/03/06 01:29:42;;;;;;;6.75;1.90;;;;;;;21.09;nan;100091.34;7390223;19;20032;-91
2024/03/06 01:32:10;;;;;;;1.65;1.35;;;;;;;21.41;nan;100091.25;7394303;19;20014;-93
2024/03/06 01:34:37;;;;;;;2.55;1.13;;;;;;;21.36;nan;100091.34;7393998;19;20366;-95
2024/03/06 01:37:03;;;;;;;5.68;2.20;;;;;;;21.14;nan;100087.66;7391207;19;20348;-95
2024/03/06 01:39:29;;;;;;;4.30;2.13;;;;;;;20.97;nan;100090.00;7390306;19;20488;-89
2024/03/06 01:41:55;;;;;;;1.90;1.48;;;;;;;20.86;nan;100093.00;7391156;19;20032;-93
2024/03/06 01:44:22;;;;;;;12.45;3.25;;;;;;;20.72;nan;100091.47;7390991;19;20034;-93
2024/03/06 01:46:48;;;;;;;1.63;1.52;;;;;;;20.48;nan;100100.09;7391403;19;20468;-93
2024/03/06 01:49:15;;;;;;;1.80;1.70;;;;;;;20.50;nan;100105.97;7392024;19;20010;-91
2024/03/06 01:51:48;;;;;;;3.35;1.73;;;;;;;20.60;nan;100115.59;7390489;19;20021;-92
2024/03/06 01:54:15;;;;;;;9.18;1.88;;;;;;;20.92;nan;100102.16;7391452;19;20021;-91
2024/03/06 01:56:48;;;;;;;7.55;2.42;;;;;;;20.75;nan;100100.94;7390019;19;20011;-95
2024/03/06 01:59:21;;;;;;;4.18;1.67;;;;;;;21.17;nan;100104.84;7389048;19;20066;-90
2024/03/06 02:01:48;;;;;;;3.17;2.70;;;;;;;21.09;nan;100102.66;7390835;19;20419;-90
2024/03/06 02:04:14;;;;;;;5.45;1.40;;;;;;;21.26;nan;100104.44;7391699;19;20031;-88
2024/03/06 02:06:41;;;;;;;12.35;2.20;;;;;;;21.66;nan;100108.78;7389468;19;20338;-87
2024/03/06 02:09:09;;;;;;;3.05;1.25;;;;;;;21.34;nan;100105.31;7388678;19;20019;-87
2024/03/06 02:11:38;;;;;;;1.98;1.80;;;;;;;20.65;nan;100106.25;7390004;19;20670;-87
2024/03/06 02:14:06;;;;;;;2.55;1.58;;;;;;;20.38;nan;100113.09;7393088;19;20025;-87
2024/03/06 02:16:32;;;;;;;6.68;2.47;;;;;;;20.30;nan;100112.19;7391154;19;20015;-86
2024/03/06 02:18:58;;;;;;;10.93;2.20;;;;;;;20.32;nan;100109.59;7390593;19;20014;-87
2024/03/06 02:21:25;;;;;;;1.75;1.65;;;;;;;20.55;nan;100107.19;7389238;19;20379;-87
2024/03/06 02:23:52;;;;;;;1.45;1.25;;;;;;;20.48;nan;100111.41;7389025;19;20018;-86
2024/03/06 02:26:18;;;;;;;6.93;2.05;;;;;;;20.55;nan;100102.31;7389233;19;20078;-86
2024/03/06 02:28:52;;;;;;;9.82;2.13;;;;;;;20.64;nan;100107.53;7390698;19;20365;-86
2024/03/06 02:31:20;;;;;;;5.22;2.35;;;;;;;20.70;nan;100110.28;7389695;19;20011;-86
2024/03/06 02:33:48;;;;;;;3.03;1.60;;;;;;;20.73;nan;100109.19;7387799;19;20019;-86
2024/03/06 02:36:16;;;;;;;1.83;1.70;;;;;;;20.70;nan;100104.63;7389062;19;20039;-87
2024/03/06 02:38:43;;;;;;;9.20;1.38;;;;;;;20.66;nan;100104.19;7387140;19;20019;-86
2024/03/06 02:41:10;;;;;;;2.90;2.05;;;;;;;20.25;nan;100104.53;7396444;19;20011;-86
2024/03/06 02:43:40;;;;;;;2.15;1.85;;;;;;;20.35;nan;100105.69;7395144;19;20036;-86
2024/03/06 02:46:06;;;;;;;4.22;2.35;;;;;;;20.50;nan;100097.50;7394951;19;20029;-86
2024/03/06 02:48:32;;;;;;;6.47;2.25;;;;;;;20.70;nan;100099.75;7398336;19;20019;-87
2024/03/06 02:50:58;;;;;;;1.98;1.67;;;;;;;20.65;nan;100097.00;7397175;19;20021;-86
2024/03/06 02:53:25;;;;;;;9.02;1.90;;;;;;;20.51;nan;100099.00;7396803;19;20026;-87
2024/03/06 02:55:51;;;;;;;4.07;2.67;;;;;;;20.76;nan;100089.09;7394814;19;20007;-86
2024/03/06 02:58:17;;;;;;;1.10;1.00;;;;;;;20.59;nan;100094.25;7393207;19;20111;-87
2024/03/06 03:00:44;;;;;;;0.40;0.40;;;;;;;20.62;nan;100098.81;7393838;19;20037;-86
2024/03/06 03:03:11;;;;;;;0.77;0.63;;;;;;;20.57;nan;100090.44;7393464;19;20025;-86
2024/03/06 03:05:39;;;;;;;1.63;0.90;;;;;;;21.52;nan;100087.44;7395354;19;20093;-86
2024/03/06 03:08:06;;;;;;;3.03;2.25;;;;;;;21.23;nan;100091.34;7397635;19;20011;-85
2024/03/06 03:10:34;;;;;;;2.60;1.50;;;;;;;21.24;nan;100090.06;7394636;19;20480;-86
2024/03/06 03:13:01;;;;;;;0.65;0.65;;;;;;;21.44;nan;100093.00;7395673;19;20043;-86
2024/03/06 03:15:27;;;;;;;2.15;1.30;;;;;;;21.57;nan;100084.47;7394410;19;20022;-86
2024/03/06 03:17:53;;;;;;;1.85;1.75;;;;;;;21.56;nan;100082.19;7392734;19;20041;-86
2024/03/06 03:20:20;;;;;;;1.98;1.20;;;;;;;21.45;nan;100079.59;7399353;19;20027;-86
2024/03/06 03:22:46;;;;;;;9.98;4.22;;;;;;;21.99;nan;100079.75;7395209;19;20033;-86
2024/03/06 03:25:13;;;;;;;1.45;1.40;;;;;;;21.36;nan;100080.78;7396112;19;20010;-86
2024/03/06 03:27:40;;;;;;;4.25;1.45;;;;;;;21.17;nan;100085.03;7395626;19;20022;-86
2024/03/06 03:30:12;;;;;;;1.02;1.00;;;;;;;21.00;nan;100077.59;7394612;19;20026;-86
2024/03/06 03:32:39;;;;;;;0.80;0.80;;;;;;;20.98;nan;100080.22;7394207;19;20365;-85
2024/03/06 03:35:07;;;;;;;1.55;1.45;;;;;;;21.23;nan;100077.94;7393787;19;20416;-86
2024/03/06 03:37:34;;;;;;;2.67;1.20;;;;;;;21.87;nan;100072.81;7396431;19;20098;-86
2024/03/06 03:40:00;;;;;;;0.70;0.70;;;;;;;20.95;nan;100081.28;7394171;19;20031;-86
2024/03/06 03:42:26;;;;;;;11.35;1.48;;;;;;;21.27;nan;100077.66;7393457;19;20023;-86
2024/03/06 03:44:52;;;;;;;1.80;1.70;;;;;;;20.90;nan;100079.31;7395234;19;20033;-86
2024/03/06 03:47:18;;;;;;;1.35;1.23;;;;;;;20.56;nan;100084.00;7390457;19;20024;-86
2024/03/06 03:49:44;;;;;;;0.90;0.90;;;;;;;20.70;nan;100085.59;7397161;19;20344;-87
2024/03/06 03:52:11;;;;;;;4.70;2.17;;;;;;;20.91;nan;100080.06;7392665;19;20037;-86
2024/03/06 03:54:37;;;;;;;3.25;1.00;;;;;;;20.96;nan;100082.78;7393167;19;20460;-86
2024/03/06 03:57:04;;;;;;;3.95;2.90;;;;;;;20.97;nan;100083.56;7392358;19;20022;-85
2024/03/06 03:59:30;;;;;;;2.88;1.35;;;;;;;21.50;nan;100090.06;7391610;19;20022;-87
2024/03/06 04:01:57;;;;;;;2.13;2.03;;;;;;;21.82;nan;100093.50;7396714;19;20113;-87
2024/03/06 04:04:23;;;;;;;1.50;1.50;;;;;;;22.25;nan;100093.09;7391741;19;20038;-87
2024/03/06 04:06:49;;;;;;;2.65;0.90;;;;;;;22.59;nan;100091.78;7392939;19;20018;-87
2024/03/06 04:09:15;;;;;;;1.13;1.13;;;;;;;22.87;nan;100090.34;7395124;19;20027;-87
2024/03/06 04:11:41;;;;;;;6.43;1.77;;;;;;;23.02;nan;100088.34;7395322;19;20022;-87
2024/03/06 04:14:08;;;;;;;6.68;2.40;;;;;;;23.05;nan;100098.63;7398576;19;20021;-86
2024/03/06 04:16:34;;;;;;;1.40;1.30;;;;;;;23.23;nan;100085.50;7393246;19;20509;-87
2024/03/06 04:19:01;;;;;;;6.35;2.10;;;;;;;23.53;nan;100097.06;7392193;19;20464;-87
2024/03/06 04:21:27;;;;;;;3.72;1.73;;;;;;;23.33;nan;100103.56;7391685;19;20022;-87
2024/03/06 04:23:53;;;;;;;3.70;2.17;;;;;;;23.37;nan;100089.75;7391844;19;20381;-87
2024/03/06 04:26:20;;;;;;;1.13;1.10;;;;;;;23.45;nan;100095.50;7395489;19;20022;-87
2024/03/06 04:28:46;;;;;;;13.05;2.75;;;;;;;23.49;nan;100096.69;7394741;19;20018;-88
2024/03/06 04:31:12;;;;;;;3.22;2.05;;;;;;;23.45;nan;100087.75;7393602;19;20023;-87
2024/03/06 04:33:41;;;;;;;5.07;2.28;;;;;;;23.68;nan;100097.16;7393149;19;20476;-86
2024/03/06 04:36:08;;;;;;;1.98;1.77;;;;;;;23.70;nan;100100.19;7390827;19;20014;-87
2024/03/06 04:38:34;;;;;;;3.17;2.22;;;;;;;23.65;nan;100098.25;7391212;19;20010;-87
2024/03/06 04:41:00;;;;;;;6.07;2.00;;;;;;;23.71;nan;100100.97;7390771;19;20022;-88
2024/03/06 04:43:26;;;;;;;5.15;2.00;;;;;;;23.63;nan;100103.75;7391772;19;20018;-88
2024/03/06 04:45:52;;;;;;;26.25;2.05;;;;;;;23.76;nan;100103.63;7391371;19;20034;-87
2024/03/06 04:48:18;;;;;;;3.25;2.05;;;;;;;23.84;nan;100112.22;7394509;19;20010;-87
2024/03/06 04:50:45;;;;;;;6.22;2.45;;;;;;;23.59;nan;100111.13;7392034;19;20074;-87
2024/03/06 04:53:11;;;;;;;5.75;2.13;;;;;;;23.99;nan;100120.81;7392385;19;20365;-87
2024/03/06 04:55:38;;;;;;;0.82;0.75;;;;;;;23.52;nan;100123.97;7392424;19;20413;-87
2024/03/06 04:58:04;;;;;;;4.65;2.13;;;;;;;23.03;nan;100123.97;7390071;19;20025;-87
2024/03/06 05:00:32;;;;;;;2.28;1.00;;;;;;;23.40;nan;100125.59;7391634;19;20653;-88
2024/03/06 05:02:58;;;;;;;4.03;2.28;;;;;;;23.43;nan;100120.91;7390867;19;20018;-87
2024/03/06 05:05:24;;;;;;;1.80;1.67;;;;;;;23.93;nan;100126.66;7391622;19;20027;-87
2024/03/06 05:07:51;;;;;;;5.15;1.63;;;;;;;23.93;nan;100129.50;7393724;19;20831;-87
2024/03/06 05:10:17;;;;;;;6.93;1.85;;;;;;;24.34;nan;100119.28;7391411;19;20116;-87
2024/03/06 05:12:43;;;;;;;3.72;1.40;;;;;;;25.13;nan;100116.16;7392889;19;20015;-88
2024/03/06 05:15:10;;;;;;;3.25;1.50;;;;;;;25.31;nan;100129.25;7397757;19;20484;-87
2024/03/06 05:17:36;;;;;;;3.58;2.42;;;;;;;25.49;nan;100130.97;7391237;19;20010;-88
2024/03/06 05:20:06;;;;;;;26.48;3.85;;;;;;;25.54;nan;100122.22;7395395;19;20090;-87
2024/03/06 05:22:32;;;;;;;12.88;1.40;;;;;;;25.52;nan;100130.59;7392045;19;20031;-88
2024/03/06 05:24:58;;;;;;;2.00;0.98;;;;;;;25.38;nan;100129.22;7392954;19;20021;-88
2024/03/06 05:27:26;;;;;;;8.35;2.05;;;;;;;25.27;nan;100135.34;7393505;19;20021;-88
2024/03/06 05:29:52;;;;;;;3.35;2.13;;;;;;;24.96;nan;100145.22;7393308;19;20029;-88
2024/03/06 05:32:18;;;;;;;10.77;3.10;;;;;;;25.15;nan;100142.75;7391287;19;20014;-88
2024/03/06 05:34:44;;;;;;;3.15;1.92;;;;;;;25.07;nan;100142.00;7394142;19;20019;-88
2024/03/06 05:37:10;;;;;;;8.27;2.03;;;;;;;25.10;nan;100152.25;7389272;19;20357;-88
2024/03/06 05:39:42;;;;;;;18.92;3.08;;;;;;;24.85;nan;100154.13;7389930;19;20032;-88
2024/03/06 05:42:08;;;;;;;2.35;1.77;;;;;;;24.76;nan;100157.53;7389554;19;20073;-88
2024/03/06 05:44:34;;;;;;;8.77;2.47;;;;;;;24.79;nan;100150.72;7389655;19;20010;-87
2024/03/06 05:47:02;;;;;;;4.32;2.70;;;;;;;25.28;nan;100162.50;7390666;19;20053;-87
2024/03/06 05:49:29;;;;;;;6.40;1.85;;;;;;;25.30;nan;100162.69;7394666;19;20014;-88
2024/03/06 05:51:55;;;;;;;1.17;1.10;;;;;;;25.29;nan;100161.19;7390641;19;20014;-87
2024/03/06 05:54:22;;;;;;;4.03;1.33;;;;;;;25.37;nan;100164.78;7389554;19;20086;-88
2024/03/06 05:56:52;;;;;;;7.30;2.45;;;;;;;25.53;nan;100169.16;7390153;19;20020;-87
2024/03/06 05:59:18;;;;;;;4.85;2.95;;;;;;;25.65;nan;100166.69;7388842;19;20082;-88
2024/03/06 06:01:45;;;;;;;4.65;1.77;;;;;;;25.64;nan;100164.41;7388249;19;20472;-87
2024/03/06 06:04:13;;;;;;;1.85;1.02;;;;;;;25.89;nan;100168.16;7387802;19;20014;-88
2024/03/06 06:06:40;;;;;;;3.33;3.05;;;;;;;26.80;nan;100172.16;7394589;19;20022;-88
2024/03/06 06:09:06;;;;;;;1.40;0.98;;;;;;;26.90;nan;100167.31;7390329;19;20029;-88
2024/03/06 06:11:33;;;;;;;7.07;2.95;;;;;;;27.26;nan;100174.69;7391244;19;20033;-88
2024/03/06 06:13:59;;;;;;;5.00;1.73;;;;;;;27.18;nan;100169.00;7392200;19;20053;-88
2024/03/06 06:16:25;;;;;;;2.22;1.30;;;;;;;27.17;nan;100173.22;7394311;19;20014;-88
2024/03/06 06:18:52;;;;;;;25.27;2.70;;;;;;;27.16;nan;100182.41;7395866;19;20022;-87
2024/03/06 06:21:18;;;;;;;7.28;1.80;;;;;;;27.04;nan;100184.97;7396309;19;20015;-88
2024/03/06 06:23:44;;;;;;;5.32;2.30;;;;;;;27.05;nan;100190.09;7395160;19;20014;-88
2024/03/06 06:26:11;;;;;;;1.35;1.25;;;;;;;26.89;nan;100188.69;7395874;19;20031;-88
2024/03/06 06:28:37;;;;;;;11.98;2.08;;;;;;;26.83;nan;100190.25;7398948;19;20383;-88
2024/03/06 06:31:04;;;;;;;3.40;1.17;;;;;;;26.79;nan;100184.94;7397640;19;20048;-88
2024/03/06 06:33:30;;;;;;;2.60;1.30;;;;;;;26.73;nan;100198.69;7396975;19;20011;-88
2024/03/06 06:35:56;;;;;;;6.47;2.08;;;;;;;26.45;nan;100193.28;7395254;19;20022;-86
2024/03/06 06:38:22;;;;;;;3.42;1.50;;;;;;;26.16;nan;100192.09;7394725;19;20543;-88
2024/03/06 06:40:48;;;;;;;2.50;1.58;;;;;;;26.00;nan;100190.56;7395775;19;20015;-81
2024/03/06 06:43:15;;;;;;;13.90;1.83;;;;;;;25.97;nan;100197.44;7397290;19;20014;-85
2024/03/06 06:45:41;;;;;;;0.60;0.60;;;;;;;26.18;nan;100195.13;7394286;19;20031;-85
2024/03/06 06:48:09;;;;;;;10.23;2.33;;;;;;;26.31;nan;100197.75;7396766;19;20027;-86
2024/03/06 06:50:35;;;;;;;2.28;1.77;;;;;;;25.75;nan;100201.09;7401735;19;20495;-84
2024/03/06 06:53:02;;;;;;;4.47;1.88;;;;;;;25.56;nan;100204.34;7395847;19;20018;-86
2024/03/06 06:55:28;;;;;;;5.68;2.33;;;;;;;25.58;nan;100202.44;7396335;19;20023;-85
2024/03/06 06:57:54;;;;;;;2.33;1.33;;;;;;;25.59;nan;100208.91;7393262;19;20476;-85
2024/03/06 07:00:22;;;;;;;6.45;1.60;;;;;;;25.58;nan;100208.16;7399767;19;20125;-86
2024/03/06 07:02:49;;;;;;;10.52;2.13;;;;;;;25.62;nan;100219.16;7394871;19;20018;-85
2024/03/06 07:05:15;;;;;;;8.40;1.35;;;;;;;25.49;nan;100208.00;7399633;19;20055;-86
2024/03/06 07:07:41;;;;;;;4.18;2.05;;;;;;;25.43;nan;100219.56;7395109;19;20014;-85
2024/03/06 07:10:08;;;;;;;9.60;0.68;;;;;;;25.47;nan;100219.94;7396319;19;20014;-85
2024/03/06 07:12:35;;;;;;;3.50;1.40;;;;;;;25.70;nan;100216.31;7396107;19;20096;-85
2024/03/06 07:15:05;;;;;;;3.10;0.95;;;;;;;25.30;nan;100228.28;7399753;19;20506;-85
2024/03/06 07:17:31;;;;;;;6.30;1.67;;;;;;;24.80;nan;100234.84;7394923;19;20011;-85
2024/03/06 07:19:57;;;;;;;5.60;1.80;;;;;;;24.60;nan;100224.34;7399551;19;20010;-85
2024/03/06 07:22:23;;;;;;;1.73;1.55;;;;;;;24.94;nan;100236.22;7396548;19;20018;-85
2024/03/06 07:24:49;;;;;;;1.63;1.48;;;;;;;25.07;nan;100233.22;7399352;19;20026;-85
2024/03/06 07:27:15;;;;;;;8.10;2.42;;;;;;;25.31;nan;100229.81;7390889;19;20015;-85
2024/03/06 07:29:41;;;;;;;3.70;2.05;;;;;;;25.37;nan;100221.84;7395894;19;20018;-86
2024/03/06 07:32:08;;;;;;;3.47;1.65;;;;;;;25.37;nan;100233.25;7394571;19;20015;-85
2024/03/06 07:34:34;;;;;;;6.65;2.28;;;;;;;25.42;nan;100238.03;7398451;19;20026;-85
2024/03/06 07:37:01;;;;;;;8.40;1.77;;;;;;;25.54;nan;100233.44;7393747;19;20033;-86
2024/03/06 07:39:27;;;;;;;5.05;1.45;;;;;;;25.66;nan;100239.53;7394011;19;20015;-85
2024/03/06 07:41:54;;;;;;;9.40;2.30;;;;;;;25.78;nan;100237.81;7393356;19;20070;-86
2024/03/06 07:44:20;;;;;;;5.25;1.70;;;;;;;27.01;nan;100234.72;7393170;19;20476;-85
2024/03/06 07:46:46;;;;;;;9.32;2.05;;;;;;;27.24;nan;100240.28;7393357;19;20040;-85
2024/03/06 07:49:12;;;;;;;7.95;3.17;;;;;;;27.21;nan;100235.72;7395447;19;20018;-85
2024/03/06 07:51:40;;;;;;;6.18;2.20;;;;;;;26.77;nan;100236.19;7393807;19;20013;-86
2024/03/06 07:54:06;;;;;;;9.30;2.08;;;;;;;26.46;nan;100243.38;7397180;19;20048;-87
2024/03/06 07:56:33;;;;;;;14.73;3.60;;;;;;;26.17;nan;100239.28;7392277;19;20022;-86
2024/03/06 07:59:00;;;;;;;6.97;2.05;;;;;;;26.07;nan;100235.47;7393271;19;20439;-86
2024/03/06 08:01:28;;;;;;;13.45;2.80;;;;;;;26.80;nan;100232.19;7392650;19;20028;-87
2024/03/06 08:03:55;;;;;;;3.78;2.60;;;;;;;27.17;nan;100236.16;7390456;19;20014;-87
2024/03/06 08:06:21;;;;;;;3.90;2.67;;;;;;;27.32;nan;100229.53;7394797;19;20137;-88
2024/03/06 08:08:47;;;;;;;3.60;2.85;;;;;;;27.64;nan;100235.97;7395534;19;20022;-88
2024/03/06 08:11:14;;;;;;;6.50;2.53;;;;;;;27.68;nan;100239.19;7397790;19;20014;-88
2024/03/06 08:13:41;;;;;;;6.20;2.92;;;;;;;27.85;nan;100241.34;7394443;19;20372;-87
2024/03/06 08:16:07;;;;;;;3.00;1.67;;;;;;;27.56;nan;100243.13;7395335;19;20037;-87
2024/03/06 08:18:35;;;;;;;3.22;2.17;;;;;;;28.00;nan;100238.34;7393947;19;20022;-80
2024/03/06 08:21:03;;;;;;;8.63;2.20;;;;;;;28.37;nan;100245.00;7389210;19;20493;-84
2024/03/06 15:27:31;;;;;;;4.47;2.13;;;;;;;33.07;33.51;100326.78;7424374;19;20073;-55
2024/03/06 15:29:58;;;;;;;13.07;4.78;;;;;;;33.74;31.87;100329.69;7423945;19;20043;-53
2024/03/06 15:32:24;;;;;;;14.05;3.22;;;;;;;34.77;29.52;100335.94;7425125;19;20006;-53
2024/03/06 15:34:52;;;;;;;4.55;1.92;;;;;;;35.21;28.43;100335.63;7426417;19;20018;-53
2024/03/06 15:37:18;;;;;;;22.00;4.47;;;;;;;35.54;27.66;100329.53;7426940;19;20473;-54
2024/03/06 15:39:45;;;;;;;16.25;4.72;;;;;;;35.80;26.99;100334.56;7424828;19;20031;-54
2024/03/06 15:42:11;;;;;;;21.13;6.93;;;;;;;35.84;26.64;100327.50;7428507;19;20025;-53
2024/03/06 15:44:37;;;;;;;17.17;3.92;;;;;;;35.96;26.41;100328.16;7429263;19;20011;-53
2024/03/06 15:47:04;;;;;;;11.20;3.80;;;;;;;35.77;25.62;100338.78;7428982;19;20015;-53
2024/03/06 15:49:30;;;;;;;19.92;4.15;;;;;;;35.74;25.83;100334.25;7429201;19;20018;-53
2024/03/06 15:51:56;;;;;;;7.97;3.33;;;;;;;35.43;25.31;100339.75;7429183;19;20062;-53
2024/03/06 15:54:22;;;;;;;9.10;3.65;;;;;;;34.45;26.37;100339.78;7428851;19;20078;-53
2024/03/06 15:56:48;;;;;;;12.15;4.63;;;;;;;34.15;26.45;100342.38;7429689;19;20497;-53
2024/03/06 15:59:15;;;;;;;13.20;4.18;;;;;;;34.22;26.60;100341.34;7428228;19;20010;-53
2024/03/06 16:01:41;;;;;;;7.35;3.42;;;;;;;33.34;27.20;100341.53;7426087;19;20018;-53
2024/03/06 16:04:08;;;;;;;8.23;3.33;;;;;;;32.94;27.42;100344.66;7428371;19;20010;-53
2024/03/06 16:06:35;;;;;;;10.35;3.40;;;;;;;32.96;27.08;100347.69;7427601;19;20015;-53
2024/03/06 16:09:02;;;;;;;2.42;2.00;;;;;;;32.76;27.51;100353.63;7428354;19;20028;-53
2024/03/06 16:11:28;;;;;;;14.35;4.90;;;;;;;32.84;27.41;100348.41;7428046;19;20022;-53
2024/03/06 16:14:00;;;;;;;9.82;4.07;;;;;;;32.94;27.36;100345.44;7427657;19;20343;-53
2024/03/06 16:16:27;;;;;;;15.00;3.25;;;;;;;33.58;27.05;100340.97;7427691;19;20038;-53
2024/03/06 16:18:53;;;;;;;8.05;3.75;;;;;;;34.10;26.36;100351.44;7427900;19;20033;-53
2024/03/06 16:21:20;;;;;;;7.57;3.28;;;;;;;34.46;25.69;100344.22;7425943;19;20014;-53
2024/03/06 16:23:48;;;;;;;12.65;4.53;;;;;;;34.03;25.91;100340.88;7428598;19;20011;-53
2024/03/06 16:26:14;;;;;;;9.20;3.13;;;;;;;34.04;25.51;100337.38;7427077;19;20013;-53
2024/03/06 16:28:41;;;;;;;7.60;3.60;;;;;;;34.06;25.73;100342.50;7427668;19;20013;-53
2024/03/06 16:31:07;;;;;;;15.40;3.60;;;;;;;34.52;25.26;100347.50;7426570;19;20346;-53
2024/03/06 16:33:33;;;;;;;13.45;4.07;;;;;;;35.06;24.68;100350.69;7397812;19;20010;-52
2024/03/06 16:35:59;;;;;;;17.00;5.82;;;;;;;35.00;24.62;100347.44;7399723;19;20010;-52
2024/03/06 16:38:26;;;;;;;9.48;2.80;;;;;;;35.12;24.42;100342.34;7398062;19;20038;-53
2024/03/06 16:40:52;;;;;;;12.55;2.90;;;;;;;34.91;24.63;100345.44;7397477;19;20014;-53
2024/03/06 16:43:19;;;;;;;7.00;3.22;;;;;;;34.26;24.51;100347.38;7397236;19;20017;-52
2024/03/06 16:45:45;;;;;;;39.33;5.50;;;;;;;33.82;24.88;100347.53;7398854;19;20042;-52
2024/03/06 16:48:11;;;;;;;6.95;3.65;;;;;;;33.17;24.78;100350.53;7397609;19;20010;-52
2024/03/06 16:50:37;;;;;;;16.20;4.00;;;;;;;33.08;24.87;100349.25;7397874;19;20018;-52
2024/03/06 16:53:06;;;;;;;5.18;3.17;;;;;;;32.72;25.09;100347.59;7401910;19;20059;-53
2024/03/06 16:55:34;;;;;;;12.23;3.70;;;;;;;33.86;24.31;100352.78;7400567;19;20378;-52
2024/03/06 16:58:03;;;;;;;11.45;4.22;;;;;;;33.34;24.43;100358.88;7401805;19;20373;-52
2024/03/06 17:00:29;;;;;;;12.25;2.85;;;;;;;33.20;24.20;100360.84;7396909;19;20021;-52
2024/03/06 17:02:56;;;;;;;5.63;2.22;;;;;;;33.00;24.52;100354.50;7396912;19;20010;-52
2024/03/06 17:05:23;;;;;;;18.85;4.00;;;;;;;32.12;25.20;100366.50;7401242;19;20014;-52
2024/03/06 17:07:49;;;;;;;5.63;3.15;;;;;;;32.25;25.23;100351.53;7400903;19;20021;-52
2024/03/06 17:10:15;;;;;;;8.23;3.45;;;;;;;32.20;24.87;100349.00;7397041;19;20018;-52
2024/03/06 17:12:42;;;;;;;5.57;3.10;;;;;;;32.35;24.93;100357.25;7397479;19;20019;-52
2024/03/06 17:15:09;;;;;;;15.32;4.13;;;;;;;31.92;25.12;100359.31;7397020;19;20023;-52
2024/03/06 17:17:36;;;;;;;8.77;3.55;;;;;;;31.02;25.90;100368.63;7396693;19;20019;-55
2024/03/06 17:20:02;;;;;;;3.25;2.35;;;;;;;31.22;25.27;100364.38;7397129;19;20454;-53
2024/03/06 17:22:28;;;;;;;14.20;3.60;;;;;;;30.11;26.32;100363.81;7398177;19;20031;-53
2024/03/06 17:24:55;;;;;;;8.70;4.00;;;;;;;29.62;26.73;100370.69;7398982;19;20604;-53
2024/03/06 17:27:22;;;;;;;9.90;3.03;;;;;;;29.99;26.15;100369.34;7401505;19;20011;-53
2024/03/06 17:29:48;;;;;;;5.35;3.28;;;;;;;30.06;26.07;100369.84;7399222;19;20013;-53
2024/03/06 17:32:14;;;;;;;9.38;3.92;;;;;;;30.06;26.44;100366.97;7400847;19;20019;-53
2024/03/06 17:34:40;;;;;;;8.93;1.77;;;;;;;30.94;25.69;100365.16;7396400;19;20011;-54
2024/03/06 17:37:07;;;;;;;14.77;3.20;;;;;;;29.81;26.50;100376.56;7399993;19;20014;-53
2024/03/06 17:39:33;;;;;;;3.10;2.90;;;;;;;29.88;26.59;100380.66;7395769;19;20022;-53
2024/03/06 17:41:59;;;;;;;5.38;2.35;;;;;;;30.24;25.79;100377.75;7397940;19;20010;-53
2024/03/06 17:44:25;;;;;;;13.02;2.67;;;;;;;30.27;25.81;100381.53;7393866;19;20024;-53
2024/03/06 17:46:51;;;;;;;5.65;2.55;;;;;;;30.03;26.38;100385.41;7399602;19;20018;-53
2024/03/06 17:49:18;;;;;;;10.70;4.35;;;;;;;30.35;25.84;100380.06;7399120;19;20525;-53
2024/03/06 17:51:44;;;;;;;7.35;2.90;;;;;;;29.90;26.11;100375.84;7398791;19;20021;-53
2024/03/06 17:54:16;;;;;;;9.77;2.25;;;;;;;29.12;26.63;100389.53;7395233;19;20468;-53
2024/03/06 17:56:43;;;;;;;7.05;3.80;;;;;;;28.90;26.56;100390.56;7399144;19;20470;-53
2024/03/06 17:59:09;;;;;;;19.95;3.55;;;;;;;29.00;27.01;100391.44;7393527;19;20010;-53
2024/03/06 18:01:35;;;;;;;25.75;3.35;;;;;;;29.11;26.66;100403.13;7396460;19;20011;-53
2024/03/06 18:04:01;;;;;;;10.82;3.50;;;;;;;29.70;25.88;100400.06;7395410;19;20470;-53
2024/03/06 18:06:28;;;;;;;13.65;3.65;;;;;;;29.82;25.73;100406.78;7396292;19;20015;-53
2024/03/06 18:08:55;;;;;;;10.20;4.75;;;;;;;29.80;25.90;100409.50;7393735;19;20014;-53
2024/03/06 18:11:21;;;;;;;8.18;3.70;;;;;;;29.71;25.80;100407.31;7397182;19;20017;-53
2024/03/06 18:13:47;;;;;;;8.88;5.15;;;;;;;29.89;25.61;100400.16;7392287;19;20018;-53
2024/03/06 18:16:13;;;;;;;6.78;4.00;;;;;;;30.03;25.33;100408.38;7397944;19;20261;-53
2024/03/06 18:18:40;;;;;;;8.20;2.28;;;;;;;29.76;25.56;100409.16;7394838;19;20486;-55
2024/03/06 18:21:08;;;;;;;3.95;1.73;;;;;;;30.04;25.69;100410.66;7396492;19;20026;-55
2024/03/06 18:23:35;;;;;;;6.57;3.85;;;;;;;29.25;26.11;100426.53;7392490;19;20022;-55
2024/03/06 18:26:02;;;;;;;15.73;4.88;;;;;;;28.77;25.97;100425.31;7394428;19;20013;-55
2024/03/06 18:28:28;;;;;;;5.55;2.38;;;;;;;28.65;26.23;100421.44;7394627;19;20462;-56
2024/03/06 18:30:54;;;;;;;8.50;2.60;;;;;;;28.83;26.46;100425.81;7391214;19;20015;-56
2024/03/06 18:33:20;;;;;;;6.75;2.92;;;;;;;29.17;25.71;100425.88;7394363;19;20047;-55
2024/03/06 18:35:46;;;;;;;2.38;1.67;;;;;;;29.19;25.73;100431.75;7387749;19;20019;-53
2024/03/06 18:38:13;;;;;;;8.80;4.32;;;;;;;28.77;26.04;100431.06;7388377;19;20070;-53